College Corner, Indiana
Current Conditions -  °F | °C
As of 7:53 PM on Sunday 21 Dec 2014 (Local Time) from KMIE Reporting Station
Haze Haze  
Wind Chill: 26°   Ceiling: Unl
Heat Index: 31°   Visibility: 6mi
Dew Point: 26°   Wind: 5mph
Humidity: 82%   Direction: 140°SE
Pressure: 30.14"   Gusts: NA
Location:  40.4312°N, 85.0058°W
Report Text: KMIE 220053Z 14004KT 6SM HZ CLR M01/M03 A3014 RMK AO2 SLP215 T10061033
Loading
Personal Weather Stations






























Interactive Weather Map New forecast layout! Learn more

10-Day Weather Forecast

Advertisements
Track Severe Weather on mobile